createdAt,value
2023-02-04T00:00:29.182Z,3.70
2023-02-04T00:02:58.733Z,3.30
2023-02-04T00:05:26.705Z,3.37
2023-02-04T00:07:54.600Z,3.30
2023-02-04T00:10:22.462Z,3.43
2023-02-04T00:12:50.377Z,3.00
2023-02-04T00:15:18.303Z,3.93
2023-02-04T00:17:46.210Z,4.17
2023-02-04T00:20:15.568Z,2.93
2023-02-04T00:22:43.491Z,3.43
2023-02-04T00:25:11.508Z,3.10
2023-02-04T00:27:39.752Z,3.23
2023-02-04T00:30:08.974Z,3.10
2023-02-04T00:32:36.933Z,3.07
2023-02-04T00:35:05.560Z,2.80
2023-02-04T00:37:34.999Z,3.53
2023-02-04T00:40:03.196Z,3.63
2023-02-04T00:42:31.168Z,2.80
2023-02-04T00:44:59.640Z,2.63
2023-02-04T00:47:27.550Z,3.40
2023-02-04T00:49:57.557Z,2.77
2023-02-04T00:52:25.484Z,3.43
2023-02-04T00:54:54.737Z,2.77
2023-02-04T00:57:23.423Z,2.70
2023-02-04T00:59:51.354Z,2.97
2023-02-04T01:02:19.296Z,2.40
2023-02-04T01:04:47.181Z,3.00
2023-02-04T01:07:15.100Z,2.77
2023-02-04T01:09:42.993Z,3.10
2023-02-04T01:12:12.348Z,3.07
2023-02-04T01:14:40.339Z,3.43
2023-02-04T01:17:08.224Z,3.73
2023-02-04T01:19:36.151Z,3.13
2023-02-04T01:22:04.028Z,4.03
2023-02-04T01:24:31.972Z,3.43
2023-02-04T01:27:21.512Z,4.43
2023-02-04T01:29:49.456Z,3.70
2023-02-04T01:32:18.285Z,4.03
2023-02-04T01:34:46.738Z,4.23
2023-02-04T01:37:14.737Z,5.10
2023-02-04T01:39:42.929Z,4.13
2023-02-04T01:42:11.235Z,4.40
2023-02-04T01:44:40.829Z,4.73
2023-02-04T01:47:08.834Z,5.17
2023-02-04T01:49:36.784Z,5.10
2023-02-04T01:52:05.224Z,4.73
2023-02-04T01:54:33.704Z,4.77
2023-02-04T01:57:01.977Z,5.57
2023-02-04T01:59:29.996Z,5.27
2023-02-04T02:02:02.577Z,5.17
2023-02-04T02:04:33.191Z,5.30
2023-02-04T02:07:06.420Z,4.73
2023-02-04T02:09:35.136Z,4.53
2023-02-04T02:12:04.231Z,5.33
2023-02-04T02:14:32.969Z,5.80
2023-02-04T02:17:02.310Z,5.10
2023-02-04T02:19:34.569Z,5.00
2023-02-04T02:22:06.693Z,5.60
2023-02-04T02:24:36.704Z,5.10
2023-02-04T02:27:08.293Z,4.87
2023-02-04T02:29:36.694Z,5.23
2023-02-04T02:32:06.156Z,5.27
2023-02-04T02:34:35.286Z,4.87
2023-02-04T02:37:04.332Z,5.27
2023-02-04T02:39:32.607Z,4.97
2023-02-04T02:42:03.026Z,5.80
2023-02-04T02:44:31.492Z,5.97
2023-02-04T02:46:59.936Z,5.10
2023-02-04T02:49:31.276Z,5.67
2023-02-04T02:51:59.183Z,6.43
2023-02-04T02:54:29.953Z,4.90
2023-02-04T02:57:02.557Z,5.53
2023-02-04T02:59:30.710Z,5.13
2023-02-04T03:02:01.553Z,4.63
2023-02-04T03:04:35.618Z,5.37
2023-02-04T03:07:04.736Z,5.90
2023-02-04T03:09:34.082Z,5.83
2023-02-04T03:12:05.221Z,5.67
2023-02-04T03:14:34.262Z,5.53
2023-02-04T03:17:05.461Z,4.70
2023-02-04T03:19:36.174Z,4.67
2023-02-04T03:22:06.375Z,5.23
2023-02-04T03:24:34.642Z,5.53
2023-02-04T03:27:05.553Z,5.20
2023-02-04T03:29:35.475Z,4.43
2023-02-04T03:32:06.421Z,5.17
2023-02-04T03:34:34.372Z,5.53
2023-02-04T03:37:02.297Z,5.47
2023-02-04T03:39:30.224Z,5.20
2023-02-04T03:41:58.643Z,4.23
2023-02-04T03:44:27.880Z,4.83
2023-02-04T03:46:56.520Z,5.63
2023-02-04T03:49:24.751Z,5.40
2023-02-04T03:51:52.881Z,5.23
2023-02-04T03:54:20.846Z,5.33
2023-02-04T03:56:48.833Z,5.47
2023-02-04T03:59:16.827Z,5.03
2023-02-04T04:01:46.166Z,6.33
2023-02-04T04:04:14.193Z,5.40
2023-02-04T04:06:42.062Z,5.13
2023-02-04T04:09:10.097Z,5.90
2023-02-04T04:11:37.993Z,6.93
2023-02-04T04:14:05.927Z,5.67
2023-02-04T04:16:33.915Z,5.90
2023-02-04T04:19:03.156Z,6.13
2023-02-04T04:21:31.140Z,5.40
2023-02-04T04:23:59.291Z,5.50
2023-02-04T04:26:27.226Z,6.03
2023-02-04T04:28:55.135Z,4.87
2023-02-04T04:31:23.136Z,4.70
2023-02-04T04:33:51.054Z,5.23
2023-02-04T04:36:20.265Z,5.20
2023-02-04T04:38:48.119Z,5.30
2023-02-04T04:41:15.992Z,5.87
2023-02-04T04:43:43.935Z,5.13
2023-02-04T04:46:11.817Z,6.67
2023-02-04T04:48:40.180Z,5.37
2023-02-04T04:51:08.170Z,6.47
2023-02-04T04:53:37.490Z,7.00
2023-02-04T04:56:05.533Z,7.23
2023-02-04T04:58:33.534Z,6.83
2023-02-04T05:01:01.500Z,6.57
2023-02-04T05:03:29.498Z,6.73
2023-02-04T05:05:57.367Z,8.20
2023-02-04T05:08:25.322Z,6.77
2023-02-04T05:10:54.584Z,7.43
2023-02-04T05:13:24.077Z,6.50
2023-02-04T05:15:52.080Z,6.73
2023-02-04T05:18:20.005Z,6.83
2023-02-04T05:20:48.028Z,6.50
2023-02-04T05:23:17.091Z,8.07
2023-02-04T05:25:44.987Z,6.77
2023-02-04T05:28:14.247Z,5.63
2023-02-04T05:30:42.315Z,6.60
2023-02-04T05:33:10.233Z,6.50
2023-02-04T05:35:38.098Z,7.03
2023-02-04T05:38:06.034Z,6.87
2023-02-04T05:40:34.298Z,6.83
2023-02-04T05:43:02.345Z,7.57
2023-02-04T05:45:31.805Z,6.40
2023-02-04T05:47:59.984Z,7.20
2023-02-04T05:50:27.970Z,7.67
2023-02-04T05:53:09.313Z,7.60
2023-02-04T05:55:37.214Z,8.80
2023-02-04T05:58:05.125Z,8.00
2023-02-04T06:00:34.495Z,7.90
2023-02-04T06:03:02.731Z,8.03
2023-02-04T06:05:30.715Z,8.63
2023-02-04T06:07:58.645Z,7.53
2023-02-04T06:10:26.675Z,9.53
2023-02-04T06:12:54.591Z,8.13
2023-02-04T06:15:22.535Z,7.77
2023-02-04T06:17:53.200Z,7.83
2023-02-04T06:20:21.356Z,8.30
2023-02-04T06:22:51.536Z,7.70
2023-02-04T06:25:19.718Z,9.27
2023-02-04T06:27:47.927Z,8.97
2023-02-04T06:30:16.497Z,8.60
2023-02-04T06:32:44.509Z,9.27
2023-02-04T06:35:15.179Z,8.50
2023-02-04T06:37:43.215Z,9.77
2023-02-04T06:40:12.741Z,9.07
2023-02-04T06:42:40.669Z,8.07
2023-02-04T06:45:09.139Z,7.80
2023-02-04T06:47:37.061Z,9.00
2023-02-04T06:50:05.265Z,8.27
2023-02-04T06:52:34.541Z,9.17
2023-02-04T06:55:02.487Z,8.57
2023-02-04T06:57:30.686Z,8.67
2023-02-04T06:59:58.566Z,8.10
2023-02-04T07:02:26.461Z,9.03
2023-02-04T07:04:54.321Z,8.97
2023-02-04T07:07:22.273Z,9.63
2023-02-04T07:09:51.561Z,9.37
2023-02-04T07:12:19.826Z,9.70
2023-02-04T07:14:47.781Z,9.03
2023-02-04T07:17:15.655Z,9.47
2023-02-04T07:19:43.552Z,8.43
2023-02-04T07:22:11.487Z,9.80
2023-02-04T07:24:39.423Z,8.90
2023-02-04T07:27:08.624Z,10.43
2023-02-04T07:29:36.568Z,9.03
2023-02-04T07:32:04.574Z,10.20
2023-02-04T07:34:32.544Z,9.63
2023-02-04T07:37:00.490Z,8.83
2023-02-04T07:39:28.392Z,11.63
2023-02-04T07:41:56.298Z,10.10
2023-02-04T07:44:32.938Z,10.63
2023-02-04T07:47:00.774Z,9.77
2023-02-04T07:49:28.891Z,10.50
2023-02-04T07:51:57.831Z,10.57
2023-02-04T07:54:25.806Z,10.20
2023-02-04T07:56:53.693Z,10.90
2023-02-04T07:59:21.639Z,9.70
2023-02-04T08:01:50.996Z,11.20
2023-02-04T08:04:18.896Z,11.40
2023-02-04T08:06:46.785Z,11.70
2023-02-04T08:09:14.692Z,11.13
2023-02-04T08:11:42.581Z,11.30
2023-02-04T08:14:10.528Z,11.30
2023-02-04T08:16:38.384Z,11.97
2023-02-04T08:19:07.590Z,11.97
2023-02-04T08:21:36.359Z,11.17
2023-02-04T08:24:04.319Z,12.03
2023-02-04T08:26:32.251Z,10.83
2023-02-04T08:29:00.176Z,11.67
2023-02-04T08:31:28.139Z,11.23
2023-02-04T08:33:56.067Z,11.77
2023-02-04T08:36:25.358Z,11.50
2023-02-04T08:38:53.278Z,11.33
2023-02-04T08:41:21.182Z,13.37
2023-02-04T08:43:49.048Z,12.03
2023-02-04T08:46:17.070Z,12.97
2023-02-04T08:48:44.996Z,12.83
2023-02-04T08:51:12.938Z,14.90
2023-02-04T08:53:42.258Z,16.03
2023-02-04T08:56:10.536Z,15.77
2023-02-04T08:58:39.638Z,14.93
2023-02-04T09:01:08.128Z,14.57
2023-02-04T09:03:36.056Z,14.57
2023-02-04T09:06:04.090Z,14.53
2023-02-04T09:08:32.061Z,14.23
2023-02-04T09:11:01.737Z,15.47
2023-02-04T09:13:29.689Z,12.33
2023-02-04T09:15:57.737Z,14.90
2023-02-04T09:18:26.152Z,15.80
2023-02-04T09:20:54.250Z,14.13
2023-02-04T09:23:23.049Z,14.23
2023-02-04T09:25:51.008Z,14.30
2023-02-04T09:28:20.524Z,15.00
2023-02-04T09:30:48.617Z,16.80
2023-02-04T09:33:17.781Z,15.60
2023-02-04T09:35:45.913Z,16.47
2023-02-04T09:38:13.836Z,16.90
2023-02-04T09:40:45.347Z,17.93
2023-02-04T09:43:18.848Z,18.13
2023-02-04T09:45:49.839Z,17.43
2023-02-04T09:48:18.045Z,16.30
2023-02-04T09:50:46.465Z,15.53
2023-02-04T09:53:17.454Z,17.77
2023-02-04T09:55:47.519Z,18.23
2023-02-04T09:58:17.424Z,16.67
2023-02-04T10:00:46.713Z,17.90
2023-02-04T10:03:18.376Z,16.90
2023-02-04T10:05:47.550Z,17.90
2023-02-04T10:08:17.170Z,17.53
2023-02-04T10:10:46.545Z,18.63
2023-02-04T10:13:19.325Z,18.40
2023-02-04T10:15:48.445Z,18.30
2023-02-04T10:18:23.160Z,18.23
2023-02-04T10:20:51.339Z,18.30
2023-02-04T10:23:19.357Z,18.97
2023-02-04T10:25:47.281Z,17.97
2023-02-04T10:28:15.386Z,18.20
2023-02-04T10:30:47.260Z,16.60
2023-02-04T10:33:24.756Z,16.57
2023-02-04T10:35:55.040Z,16.87
2023-02-04T10:38:23.621Z,14.97
2023-02-04T10:41:01.857Z,15.23
2023-02-04T10:43:29.741Z,15.63
2023-02-04T10:45:59.796Z,14.63
2023-02-04T10:48:30.311Z,16.33
2023-02-04T10:50:59.236Z,14.67
2023-02-04T10:53:45.244Z,14.27
2023-02-04T10:56:17.763Z,13.73
2023-02-04T10:58:45.899Z,14.73
2023-02-04T11:01:15.822Z,14.87
2023-02-04T11:03:48.043Z,13.87
2023-02-04T11:06:21.732Z,13.03
2023-02-04T11:08:51.545Z,13.20
2023-02-04T11:11:21.753Z,13.63
2023-02-04T11:14:00.799Z,12.80
2023-02-04T11:16:32.742Z,10.10
2023-02-04T11:19:04.629Z,10.70
2023-02-04T11:21:43.958Z,10.57
2023-02-04T11:24:26.864Z,10.13
2023-02-04T11:27:08.007Z,10.43
2023-02-04T11:29:39.004Z,11.53
2023-02-04T11:32:14.529Z,12.03
2023-02-04T11:34:51.199Z,11.23
2023-02-04T11:37:38.011Z,11.77
2023-02-04T11:40:27.291Z,11.37
2023-02-04T11:43:03.491Z,11.47
2023-02-04T11:45:34.873Z,11.43
2023-02-04T11:48:05.322Z,10.90
2023-02-04T11:50:38.278Z,10.20
2023-02-04T11:53:06.725Z,11.43
2023-02-04T11:55:37.752Z,8.50
2023-02-04T11:58:07.273Z,9.13
2023-02-04T12:00:35.250Z,9.03
2023-02-04T12:03:20.463Z,9.00
2023-02-04T12:05:49.913Z,9.23
2023-02-04T12:08:27.886Z,8.53
2023-02-04T12:11:07.398Z,8.83
2023-02-04T12:13:46.681Z,8.60
2023-02-04T12:16:14.660Z,8.30
2023-02-04T12:18:42.649Z,7.50
2023-02-04T12:21:12.074Z,8.10
2023-02-04T12:23:39.971Z,7.30
2023-02-04T12:26:08.630Z,7.90
2023-02-04T12:28:36.651Z,7.43
2023-02-04T12:31:04.942Z,7.10
2023-02-04T12:33:33.273Z,8.20
2023-02-04T12:36:01.140Z,6.43
2023-02-04T12:38:30.409Z,5.97
2023-02-04T12:40:58.293Z,5.33
2023-02-04T12:43:28.360Z,5.77
2023-02-04T12:45:56.624Z,5.67
2023-02-04T12:48:26.024Z,6.77
2023-02-04T12:50:54.098Z,6.93
2023-02-04T12:53:22.270Z,8.50
2023-02-04T12:55:51.543Z,7.20
2023-02-04T12:58:19.401Z,7.57
2023-02-04T13:00:47.375Z,7.20
2023-02-04T13:03:15.324Z,8.13
2023-02-04T13:05:43.267Z,7.77
2023-02-04T13:08:11.151Z,6.93
2023-02-04T13:10:39.043Z,8.30
2023-02-04T13:13:09.270Z,8.60
2023-02-04T13:15:37.212Z,8.10
2023-02-04T13:18:05.407Z,7.47
2023-02-04T13:20:33.378Z,7.27
2023-02-04T13:23:01.377Z,7.93
2023-02-04T13:25:29.428Z,8.27
2023-02-04T13:27:57.472Z,9.27
2023-02-04T13:30:26.808Z,7.70
2023-02-04T13:32:54.753Z,7.40
2023-02-04T13:35:22.663Z,7.50
2023-02-04T13:37:50.532Z,7.30
2023-02-04T13:40:18.660Z,7.33
2023-02-04T13:42:46.558Z,6.87
2023-02-04T13:45:16.249Z,8.00
2023-02-04T13:47:45.533Z,7.30
2023-02-04T13:50:13.520Z,8.23
2023-02-04T13:52:41.372Z,7.97
2023-02-04T13:55:10.009Z,7.63
2023-02-04T13:57:38.265Z,7.00
2023-02-04T14:00:07.832Z,7.30
2023-02-04T14:02:42.928Z,7.47
2023-02-04T14:05:12.421Z,6.77
2023-02-04T14:07:40.451Z,7.67
2023-02-04T14:10:09.168Z,7.10
2023-02-04T14:12:37.218Z,8.03
2023-02-04T14:15:05.683Z,7.13
2023-02-04T14:17:33.692Z,6.60
2023-02-04T14:20:01.704Z,6.90
2023-02-04T14:22:31.015Z,6.83
2023-02-04T14:24:58.950Z,6.50
2023-02-04T14:27:27.248Z,7.57
2023-02-04T14:29:55.249Z,6.77
2023-02-04T14:32:23.307Z,6.73
2023-02-04T14:34:51.237Z,6.83
2023-02-04T14:37:19.155Z,7.50
2023-02-04T14:39:48.419Z,6.70
2023-02-04T14:42:16.357Z,6.30
2023-02-04T14:44:44.225Z,7.77
2023-02-04T14:47:12.167Z,7.47
2023-02-04T14:49:40.057Z,8.20
2023-02-04T14:52:10.214Z,7.33
2023-02-04T14:54:38.472Z,6.90
2023-02-04T14:57:11.205Z,7.40
2023-02-04T14:59:39.337Z,8.00
2023-02-04T15:02:07.586Z,8.87
2023-02-04T15:04:35.566Z,8.70
2023-02-04T15:07:03.569Z,8.23
2023-02-04T15:09:31.553Z,9.00
2023-02-04T15:11:59.546Z,8.70
2023-02-04T15:14:28.904Z,9.40
2023-02-04T15:16:56.943Z,9.13
2023-02-04T15:19:25.120Z,10.13
2023-02-04T15:21:53.925Z,10.67
2023-02-04T15:24:22.764Z,8.37
2023-02-04T15:26:51.611Z,9.50
2023-02-04T15:29:19.573Z,11.33
2023-02-04T15:31:49.024Z,10.10
2023-02-04T15:34:16.945Z,10.97
2023-02-04T15:36:44.877Z,10.40
2023-02-04T15:39:12.820Z,10.33
2023-02-04T15:41:40.837Z,10.57
2023-02-04T15:44:08.861Z,10.30
2023-02-04T15:46:36.847Z,10.60
2023-02-04T15:49:06.097Z,9.73
2023-02-04T15:51:34.174Z,10.07
2023-02-04T15:54:02.064Z,9.80
2023-02-04T15:56:29.971Z,10.90
2023-02-04T15:58:57.863Z,8.93
2023-02-04T16:01:25.809Z,9.20
2023-02-04T16:03:56.402Z,10.23
2023-02-04T16:06:26.125Z,9.13
2023-02-04T16:08:54.188Z,9.93
2023-02-04T16:11:22.145Z,10.13
2023-02-04T16:13:50.101Z,10.37
2023-02-04T16:16:18.097Z,9.87
2023-02-04T16:18:45.972Z,10.97
2023-02-04T16:21:13.903Z,9.37
2023-02-04T16:23:43.631Z,9.93
2023-02-04T16:26:11.641Z,11.93
2023-02-04T16:28:39.568Z,11.80
2023-02-04T16:31:09.557Z,12.30
2023-02-04T16:33:37.659Z,11.33
2023-02-04T16:36:08.261Z,11.17
2023-02-04T16:38:38.786Z,10.20
2023-02-04T16:41:08.698Z,9.97
2023-02-04T16:43:37.375Z,10.23
2023-02-04T16:46:05.741Z,10.53
2023-02-04T16:48:33.960Z,10.00
2023-02-04T16:51:01.933Z,9.43
2023-02-04T16:53:29.824Z,9.90
2023-02-04T16:55:57.859Z,8.13
2023-02-04T16:58:27.168Z,9.57
2023-02-04T17:00:56.726Z,10.00
2023-02-04T17:03:24.613Z,9.63
2023-02-04T17:05:52.525Z,9.87
2023-02-04T17:08:20.379Z,9.87
2023-02-04T17:11:05.918Z,10.97
2023-02-04T17:13:35.335Z,9.80
2023-02-04T17:16:03.280Z,9.57
2023-02-04T17:18:32.437Z,8.87
2023-02-04T17:21:01.234Z,8.77
2023-02-04T17:23:29.706Z,9.10
2023-02-04T17:25:57.616Z,8.77
2023-02-04T17:28:26.189Z,8.90
2023-02-04T17:30:55.893Z,8.93
2023-02-04T17:33:23.959Z,10.00
2023-02-04T17:35:51.874Z,9.17
2023-02-04T17:38:19.773Z,9.80
2023-02-04T17:40:47.709Z,9.80
2023-02-04T17:43:15.596Z,10.03
2023-02-04T17:45:43.525Z,10.47
2023-02-04T17:48:12.910Z,10.00
2023-02-04T17:50:40.841Z,10.10
2023-02-04T17:53:09.641Z,9.40
2023-02-04T17:55:39.721Z,9.90
2023-02-04T17:58:14.953Z,9.40
2023-02-04T18:00:45.115Z,9.13
2023-02-04T18:03:16.648Z,10.87
2023-02-04T18:05:46.823Z,10.43
2023-02-04T18:08:17.019Z,10.83
2023-02-04T18:10:46.617Z,10.10
2023-02-04T18:13:17.328Z,11.40
2023-02-04T18:15:47.197Z,11.87
2023-02-04T18:18:27.894Z,10.90
2023-02-04T18:21:01.032Z,11.37
2023-02-04T18:23:30.978Z,9.90
2023-02-04T18:26:06.065Z,10.47
2023-02-04T18:28:36.647Z,10.30
2023-02-04T18:31:18.191Z,11.10
2023-02-04T18:33:47.872Z,11.03
2023-02-04T18:36:19.848Z,10.30
2023-02-04T18:38:47.972Z,11.20
2023-02-04T18:41:31.274Z,10.47
2023-02-04T18:44:03.120Z,12.03
2023-02-04T18:46:33.965Z,12.60
2023-02-04T18:49:21.262Z,11.90
2023-02-04T18:51:49.226Z,12.20
2023-02-04T18:54:25.994Z,11.80
2023-02-04T18:56:56.459Z,12.93
2023-02-04T18:59:28.496Z,11.40
2023-02-04T19:01:56.563Z,15.70
2023-02-04T19:04:26.958Z,15.50
2023-02-04T19:06:56.572Z,16.07
2023-02-04T19:09:26.096Z,14.20
2023-02-04T19:11:55.929Z,16.20
2023-02-04T19:14:30.062Z,15.40
2023-02-04T19:17:16.846Z,13.40
2023-02-04T19:19:53.231Z,15.53
2023-02-04T19:22:27.475Z,14.13
2023-02-04T19:24:59.463Z,13.40
2023-02-04T19:27:30.826Z,14.70
2023-02-04T19:30:00.574Z,13.57
2023-02-04T19:32:37.535Z,12.00
2023-02-04T19:35:19.262Z,12.33
2023-02-04T19:37:54.785Z,12.53
2023-02-04T19:40:30.915Z,10.97
2023-02-04T19:43:15.029Z,10.40
2023-02-04T19:45:43.512Z,12.20
2023-02-04T19:48:22.539Z,16.67
2023-02-04T19:50:53.977Z,11.60
2023-02-04T19:53:23.405Z,13.07
2023-02-04T19:55:52.787Z,13.67
2023-02-04T19:58:22.837Z,21.20
2023-02-04T20:00:57.181Z,13.87
2023-02-04T20:03:41.468Z,14.37
2023-02-04T20:06:27.231Z,13.13
2023-02-04T20:09:03.485Z,13.87
2023-02-04T20:11:58.383Z,12.00
2023-02-04T20:14:41.518Z,11.07
2023-02-04T20:17:19.525Z,11.93
2023-02-04T20:19:48.684Z,10.90
2023-02-04T20:22:45.973Z,10.83
2023-02-04T20:25:39.415Z,10.17
2023-02-04T20:28:29.991Z,9.20
2023-02-04T20:31:01.233Z,10.80
2023-02-04T20:33:50.424Z,11.63
2023-02-04T20:36:41.054Z,9.70
2023-02-04T20:39:35.573Z,12.53
2023-02-04T20:42:27.287Z,10.67
2023-02-04T20:44:56.179Z,12.27
2023-02-04T20:47:26.439Z,10.10
2023-02-04T20:49:56.235Z,12.00
2023-02-04T20:53:16.275Z,11.97
2023-02-04T20:55:49.713Z,10.87
2023-02-04T20:58:20.741Z,11.60
2023-02-04T21:00:52.115Z,12.67
2023-02-04T21:03:23.537Z,13.60
2023-02-04T21:05:52.489Z,13.17
2023-02-04T21:08:30.500Z,12.60
2023-02-04T21:10:59.826Z,11.43
2023-02-04T21:13:27.765Z,11.43
2023-02-04T21:15:56.590Z,12.20
2023-02-04T21:18:24.831Z,11.73
2023-02-04T21:20:52.737Z,13.97
2023-02-04T21:23:20.705Z,13.50
2023-02-04T21:25:48.572Z,13.40
2023-02-04T21:28:17.863Z,15.97
2023-02-04T21:30:45.974Z,15.83
2023-02-04T21:33:16.631Z,14.20
2023-02-04T21:35:44.902Z,13.87
2023-02-04T21:38:12.808Z,14.20
2023-02-04T21:40:40.829Z,16.63
2023-02-04T21:43:08.719Z,15.33
2023-02-04T21:45:39.685Z,14.03
2023-02-04T21:48:08.483Z,15.50
2023-02-04T21:50:38.282Z,15.23
2023-02-04T21:53:07.724Z,17.40
2023-02-04T21:55:36.323Z,16.03
2023-02-04T21:58:04.668Z,12.97
2023-02-04T22:00:32.993Z,14.10
2023-02-04T22:03:02.280Z,13.63
2023-02-04T22:05:30.264Z,13.43
2023-02-04T22:07:59.810Z,14.53
2023-02-04T22:10:28.054Z,13.80
2023-02-04T22:12:56.030Z,15.27
2023-02-04T22:15:24.565Z,14.30
2023-02-04T22:17:54.037Z,14.90
2023-02-04T22:20:25.390Z,14.80
2023-02-04T22:22:53.880Z,14.50
2023-02-04T22:25:22.678Z,14.37
2023-02-04T22:27:50.903Z,15.17
2023-02-04T22:30:19.767Z,14.57
2023-02-04T22:32:47.737Z,15.43
2023-02-04T22:35:16.174Z,17.33
2023-02-04T22:37:45.442Z,14.83
2023-02-04T22:40:13.917Z,14.17
2023-02-04T22:42:42.003Z,15.10
2023-02-04T22:45:11.157Z,13.10
2023-02-04T22:47:39.270Z,15.77
2023-02-04T22:50:07.971Z,12.43
2023-02-04T22:52:35.853Z,12.53
2023-02-04T22:55:05.833Z,13.93
2023-02-04T22:57:33.765Z,12.47
2023-02-04T23:00:01.748Z,13.43
2023-02-04T23:02:29.669Z,15.27
2023-02-04T23:04:57.534Z,14.73
2023-02-04T23:07:25.457Z,13.87
2023-02-04T23:09:53.414Z,15.40
2023-02-04T23:12:22.608Z,14.83
2023-02-04T23:14:51.031Z,16.57
2023-02-04T23:17:19.885Z,14.50
2023-02-04T23:19:47.932Z,15.60
2023-02-04T23:22:16.985Z,16.50
2023-02-04T23:24:45.186Z,19.37
2023-02-04T23:27:13.664Z,17.33
2023-02-04T23:29:43.263Z,17.03
2023-02-04T23:32:11.381Z,19.13
2023-02-04T23:34:39.391Z,19.27
2023-02-04T23:37:07.387Z,21.50
2023-02-04T23:39:35.323Z,20.00
2023-02-04T23:42:03.634Z,22.13
2023-02-04T23:44:31.597Z,23.97
2023-02-04T23:47:00.819Z,20.67
2023-02-04T23:49:28.678Z,20.20
2023-02-04T23:51:56.604Z,23.60
2023-02-04T23:54:24.553Z,23.70
2023-02-04T23:56:53.250Z,22.97
2023-02-04T23:59:21.216Z,21.97
